createdAt,value
2022-11-19T00:01:53.565Z,-0.74
2022-11-19T00:04:25.814Z,-0.68
2022-11-19T00:06:56.453Z,-0.76
2022-11-19T00:09:28.283Z,-0.70
2022-11-19T00:12:17.696Z,-0.75
2022-11-19T00:14:49.329Z,-0.77
2022-11-19T00:17:21.306Z,-0.76
2022-11-19T00:19:53.004Z,-0.55
2022-11-19T00:22:24.635Z,-0.51
2022-11-19T00:24:56.344Z,-0.43
2022-11-19T00:27:28.111Z,-0.55
2022-11-19T00:30:05.527Z,-0.65
2022-11-19T00:32:43.807Z,-0.59
2022-11-19T00:35:16.051Z,-0.64
2022-11-19T00:37:47.700Z,-0.83
2022-11-19T00:40:19.604Z,-0.71
2022-11-19T00:43:05.196Z,-0.77
2022-11-19T00:45:36.870Z,-0.72
2022-11-19T00:48:08.960Z,-0.57
2022-11-19T00:50:40.680Z,-0.53
2022-11-19T00:53:12.349Z,-0.56
2022-11-19T00:55:44.041Z,-0.95
2022-11-19T00:58:16.547Z,-1.11
2022-11-19T01:00:48.268Z,-1.20
2022-11-19T01:03:19.936Z,-1.09
2022-11-19T01:05:52.085Z,-0.97
2022-11-19T01:08:25.137Z,-1.11
2022-11-19T01:10:57.335Z,-1.09
2022-11-19T01:13:38.300Z,-1.17
2022-11-19T01:16:12.580Z,-1.28
2022-11-19T01:18:45.683Z,-1.42
2022-11-19T01:21:18.672Z,-1.43
2022-11-19T01:23:50.728Z,-1.45
2022-11-19T01:26:22.575Z,-1.27
2022-11-19T01:28:54.893Z,-1.37
2022-11-19T01:31:29.130Z,-1.46
2022-11-19T01:34:01.259Z,-1.38
2022-11-19T01:36:33.438Z,-1.23
2022-11-19T01:39:05.119Z,-1.23
2022-11-19T01:41:36.799Z,-1.25
2022-11-19T01:44:09.544Z,-1.16
2022-11-19T01:46:42.593Z,-1.33
2022-11-19T01:49:19.088Z,-1.51
2022-11-19T01:51:53.289Z,-1.56
2022-11-19T01:54:30.037Z,-1.62
2022-11-19T01:57:06.415Z,-1.67
2022-11-19T01:59:39.545Z,-1.82
2022-11-19T02:02:12.907Z,-2.02
2022-11-19T02:04:46.676Z,-2.04
2022-11-19T02:07:26.206Z,-2.00
2022-11-19T02:09:59.305Z,-2.10
2022-11-19T02:12:43.852Z,-2.27
2022-11-19T02:15:32.592Z,-2.23
2022-11-19T02:18:20.276Z,-2.22
2022-11-19T02:21:05.232Z,-2.06
2022-11-19T02:24:19.223Z,-1.99
2022-11-19T02:27:15.019Z,-2.27
2022-11-19T02:30:09.619Z,-2.33
2022-11-19T02:33:04.734Z,-2.32
2022-11-19T02:35:46.608Z,-2.42
2022-11-19T02:38:35.585Z,-2.32
2022-11-19T02:41:29.658Z,-2.04
2022-11-19T02:44:23.059Z,-2.23
2022-11-19T02:46:56.785Z,-2.37
2022-11-19T02:49:32.997Z,-2.48
2022-11-19T02:52:06.085Z,-2.53
2022-11-19T02:54:37.899Z,-2.53
2022-11-19T02:57:10.517Z,-2.45
2022-11-19T03:00:04.397Z,-2.39
2022-11-19T03:02:59.893Z,-2.43
2022-11-19T03:05:36.778Z,-2.39
2022-11-19T03:08:09.067Z,-2.37
2022-11-19T03:10:51.510Z,-2.36
2022-11-19T03:13:45.293Z,-2.49
2022-11-19T03:16:40.601Z,-2.58
2022-11-19T03:19:21.673Z,-2.66
2022-11-19T03:21:58.809Z,-2.70
2022-11-19T03:24:35.337Z,-2.81
2022-11-19T03:27:14.759Z,-2.88
2022-11-19T03:29:51.797Z,-2.66
2022-11-19T03:32:27.325Z,-2.37
2022-11-19T03:35:02.791Z,-2.27
2022-11-19T03:37:38.901Z,-2.21
2022-11-19T03:40:16.222Z,-2.11
2022-11-19T03:42:51.536Z,-2.19
2022-11-19T03:45:26.935Z,-2.41
2022-11-19T03:48:02.615Z,-2.76
2022-11-19T03:50:41.137Z,-2.92
2022-11-19T03:53:13.219Z,-3.09
2022-11-19T03:55:50.367Z,-3.16
2022-11-19T03:58:24.555Z,-3.16
2022-11-19T04:00:56.986Z,-3.11
2022-11-19T04:03:29.189Z,-3.15
2022-11-19T04:06:00.897Z,-3.10
2022-11-19T04:08:33.067Z,-3.14
2022-11-19T04:13:35.374Z,-2.96
2022-11-19T04:16:07.672Z,-2.66
2022-11-19T04:18:39.380Z,-2.78
2022-11-19T04:21:11.413Z,-3.05
2022-11-19T04:23:43.513Z,-3.12
2022-11-19T04:26:15.519Z,-3.14
2022-11-19T04:28:47.290Z,-3.14
2022-11-19T04:31:19.012Z,-3.31
2022-11-19T04:33:51.371Z,-3.44
2022-11-19T04:36:23.221Z,-3.36
2022-11-19T04:38:54.906Z,-3.16
2022-11-19T04:41:26.685Z,-3.01
2022-11-19T04:43:58.508Z,-2.98
2022-11-19T04:46:30.270Z,-3.03
2022-11-19T04:49:01.994Z,-3.16
2022-11-19T04:51:34.243Z,-2.92
2022-11-19T04:54:08.554Z,-2.84
2022-11-19T04:56:41.192Z,-2.97
2022-11-19T04:59:13.069Z,-2.85
2022-11-19T05:01:44.815Z,-2.72
2022-11-19T05:04:16.588Z,-2.58
2022-11-19T05:06:48.675Z,-2.55
2022-11-19T05:09:20.580Z,-2.57
2022-11-19T05:11:52.610Z,-2.66
2022-11-19T05:14:29.908Z,-2.63
2022-11-19T05:17:02.363Z,-2.58
2022-11-19T05:19:34.290Z,-2.50
2022-11-19T05:22:06.216Z,-2.46
2022-11-19T05:24:38.713Z,-2.41
2022-11-19T05:27:09.130Z,-2.42
2022-11-19T05:29:40.834Z,-2.38
2022-11-19T05:32:12.860Z,-2.30
2022-11-19T05:34:44.690Z,-2.30
2022-11-19T05:37:16.389Z,-2.32
2022-11-19T05:39:48.233Z,-2.36
2022-11-19T05:42:19.990Z,-2.50
2022-11-19T05:44:51.792Z,-2.49
2022-11-19T05:47:24.343Z,-2.51
2022-11-19T05:49:56.937Z,-2.50
2022-11-19T05:52:27.145Z,-2.42
2022-11-19T05:54:58.942Z,-2.32
2022-11-19T05:57:30.681Z,-2.32
2022-11-19T06:00:02.423Z,-2.29
2022-11-19T06:02:44.041Z,-2.32
2022-11-19T06:05:15.989Z,-2.30
2022-11-19T06:07:47.738Z,-2.26
2022-11-19T06:10:19.389Z,-2.33
2022-11-19T06:12:51.621Z,-2.29
2022-11-19T06:15:23.400Z,-2.22
2022-11-19T06:17:57.032Z,-2.19
2022-11-19T06:20:28.817Z,-2.29
2022-11-19T06:23:00.441Z,-2.39
2022-11-19T06:25:32.175Z,-2.46
2022-11-19T06:28:03.960Z,-2.40
2022-11-19T06:30:35.767Z,-2.38
2022-11-19T06:33:07.687Z,-2.29
2022-11-19T06:35:39.484Z,-2.20
2022-11-19T06:38:11.176Z,-2.16
2022-11-19T06:40:42.951Z,-2.22
2022-11-19T06:43:14.651Z,-2.37
2022-11-19T06:45:46.869Z,-2.35
2022-11-19T06:48:18.724Z,-2.37
2022-11-19T06:50:51.126Z,-2.22
2022-11-19T06:53:23.574Z,-2.16
2022-11-19T06:55:57.947Z,-2.13
2022-11-19T06:58:30.168Z,-2.12
2022-11-19T07:01:02.181Z,-2.03
2022-11-19T07:03:35.902Z,-2.17
2022-11-19T07:06:08.363Z,-2.30
2022-11-19T07:08:40.217Z,-2.14
2022-11-19T07:11:27.108Z,-1.99
2022-11-19T07:14:00.322Z,-1.99
2022-11-19T07:16:34.228Z,-1.89
2022-11-19T07:19:09.022Z,-1.78
2022-11-19T07:21:40.747Z,-1.73
2022-11-19T07:24:13.234Z,-1.79
2022-11-19T07:26:45.370Z,-1.88
2022-11-19T07:29:18.898Z,-1.60
2022-11-19T07:31:53.442Z,-1.54
2022-11-19T07:34:25.592Z,-1.46
2022-11-19T07:36:57.517Z,-1.68
2022-11-19T07:39:29.574Z,-1.75
2022-11-19T07:42:19.168Z,-1.64
2022-11-19T07:44:57.268Z,-1.68
2022-11-19T07:47:28.230Z,-1.47
2022-11-19T07:50:01.052Z,-1.48
2022-11-19T07:52:33.654Z,-1.32
2022-11-19T07:55:04.378Z,-1.39
2022-11-19T07:57:36.784Z,-1.28
2022-11-19T08:00:12.348Z,-1.14
2022-11-19T08:02:47.675Z,-1.10
2022-11-19T08:05:18.557Z,-1.10
2022-11-19T08:07:50.828Z,-0.93
2022-11-19T08:10:31.416Z,-1.07
2022-11-19T08:13:05.731Z,-1.11
2022-11-19T08:15:38.027Z,-1.01
2022-11-19T08:18:16.156Z,-1.00
2022-11-19T08:20:49.719Z,-1.02
2022-11-19T08:23:24.025Z,-1.01
2022-11-19T08:25:56.871Z,-1.05
2022-11-19T08:28:30.180Z,-0.96
2022-11-19T08:31:11.276Z,-0.86
2022-11-19T08:33:44.130Z,-0.78
2022-11-19T08:36:15.804Z,-0.68
2022-11-19T08:38:48.189Z,-0.63
2022-11-19T08:41:37.484Z,-0.52
2022-11-19T08:44:09.825Z,-0.67
2022-11-19T08:46:42.661Z,-0.68
2022-11-19T08:49:14.830Z,-0.45
2022-11-19T08:51:46.516Z,-0.31
2022-11-19T08:54:18.996Z,-0.28
2022-11-19T08:56:49.543Z,-0.36
2022-11-19T08:59:22.322Z,-0.37
2022-11-19T09:01:54.220Z,-0.37
2022-11-19T09:04:26.502Z,-0.12
2022-11-19T09:06:58.307Z,-0.00
2022-11-19T09:09:30.824Z,0.00
2022-11-19T09:12:03.864Z,-0.01
2022-11-19T09:14:37.925Z,0.06
2022-11-19T09:17:09.767Z,0.05
2022-11-19T09:19:41.562Z,-0.18
2022-11-19T09:22:13.720Z,0.02
2022-11-19T09:24:48.516Z,0.29
2022-11-19T09:27:23.939Z,0.27
2022-11-19T09:29:56.925Z,0.41
2022-11-19T09:32:30.394Z,0.51
2022-11-19T09:35:04.104Z,0.51
2022-11-19T09:37:36.871Z,0.73
2022-11-19T09:40:10.604Z,0.93
2022-11-19T09:42:53.359Z,0.71
2022-11-19T09:45:27.880Z,0.71
2022-11-19T09:48:18.517Z,1.03
2022-11-19T09:50:55.001Z,1.14
2022-11-19T09:53:30.392Z,1.29
2022-11-19T09:56:03.702Z,1.57
2022-11-19T09:58:41.431Z,1.59
2022-11-19T10:01:17.449Z,1.33
2022-11-19T10:03:51.541Z,1.26
2022-11-19T10:06:28.888Z,1.16
2022-11-19T10:09:27.120Z,1.37
2022-11-19T10:12:14.933Z,1.56
2022-11-19T10:15:06.593Z,1.62
2022-11-19T10:17:51.052Z,1.64
2022-11-19T10:20:36.429Z,1.84
2022-11-19T10:23:16.286Z,1.78
2022-11-19T10:25:50.398Z,1.62
2022-11-19T10:28:27.533Z,1.59
2022-11-19T10:31:13.821Z,1.58
2022-11-19T10:33:51.651Z,1.97
2022-11-19T10:36:30.679Z,2.10
2022-11-19T10:39:08.982Z,2.33
2022-11-19T10:41:47.508Z,2.55
2022-11-19T10:44:40.465Z,2.56
2022-11-19T10:47:16.114Z,2.25
2022-11-19T10:49:52.236Z,2.09
2022-11-19T10:52:32.092Z,2.19
2022-11-19T10:55:14.043Z,2.51
2022-11-19T10:57:49.815Z,2.58
2022-11-19T11:00:22.185Z,2.55
2022-11-19T11:02:59.303Z,2.34
2022-11-19T11:05:32.108Z,2.14
2022-11-19T11:08:12.931Z,1.97
2022-11-19T11:10:48.128Z,2.02
2022-11-19T11:13:58.907Z,2.04
2022-11-19T11:16:45.305Z,2.04
2022-11-19T11:19:19.917Z,1.86
2022-11-19T11:21:54.819Z,1.88
2022-11-19T11:24:34.474Z,2.00
2022-11-19T11:27:23.387Z,1.84
2022-11-19T11:30:16.233Z,1.92
2022-11-19T11:32:48.081Z,1.76
2022-11-19T11:35:35.627Z,1.44
2022-11-19T11:38:07.913Z,1.40
2022-11-19T11:40:38.788Z,1.38
2022-11-19T11:43:19.252Z,1.39
2022-11-19T11:45:59.999Z,1.40
2022-11-19T11:48:38.519Z,1.25
2022-11-19T11:51:23.835Z,1.34
2022-11-19T11:54:18.391Z,1.50
2022-11-19T11:56:50.769Z,1.48
2022-11-19T11:59:29.803Z,1.44
2022-11-19T12:02:07.845Z,1.26
2022-11-19T12:04:39.940Z,1.29
2022-11-19T12:07:19.648Z,1.28
2022-11-19T12:10:03.606Z,1.21
2022-11-19T12:12:41.517Z,1.22
2022-11-19T12:15:24.059Z,1.19
2022-11-19T12:18:02.194Z,1.26
2022-11-19T12:20:40.671Z,1.35
2022-11-19T12:23:34.650Z,1.14
2022-11-19T12:26:14.008Z,0.83
2022-11-19T12:29:04.267Z,0.80
2022-11-19T12:31:47.984Z,0.99
2022-11-19T12:34:41.463Z,0.98
2022-11-19T12:37:28.678Z,1.08
2022-11-19T12:40:15.351Z,1.10
2022-11-19T12:42:58.216Z,0.93
2022-11-19T12:45:42.486Z,0.65
2022-11-19T12:48:31.093Z,0.59
2022-11-19T12:51:13.021Z,0.69
2022-11-19T12:53:59.230Z,0.46
2022-11-19T12:56:43.584Z,0.47
2022-11-19T12:59:34.444Z,0.38
2022-11-19T13:02:16.309Z,0.39
2022-11-19T13:04:53.646Z,0.18
2022-11-19T13:07:30.237Z,0.38
2022-11-19T13:10:08.962Z,0.48
2022-11-19T13:12:46.953Z,0.45
2022-11-19T13:15:24.222Z,0.27
2022-11-19T13:17:59.221Z,0.33
2022-11-19T13:20:41.721Z,0.22
2022-11-19T13:23:20.939Z,0.24
2022-11-19T13:26:00.227Z,0.22
2022-11-19T13:28:37.562Z,0.15
2022-11-19T13:31:15.402Z,0.12
2022-11-19T13:33:52.219Z,0.01
2022-11-19T13:36:32.312Z,0.15
2022-11-19T13:39:13.473Z,-0.03
2022-11-19T13:42:09.299Z,-0.20
2022-11-19T13:44:42.067Z,-0.18
2022-11-19T13:47:14.824Z,0.06
2022-11-19T13:49:52.260Z,0.08
2022-11-19T13:52:31.102Z,0.11
2022-11-19T13:55:03.800Z,0.13
2022-11-19T13:57:35.074Z,0.09
2022-11-19T14:00:22.035Z,0.09
2022-11-19T14:03:27.327Z,0.01
2022-11-19T14:06:15.346Z,-0.20
2022-11-19T14:09:10.040Z,-0.05
2022-11-19T14:12:09.216Z,0.03
2022-11-19T14:15:10.796Z,0.00
2022-11-19T14:18:06.354Z,0.02
2022-11-19T14:20:59.620Z,-0.14
2022-11-19T14:24:04.439Z,-0.07
2022-11-19T14:27:18.320Z,0.07
2022-11-19T14:30:02.127Z,-0.10
2022-11-19T14:32:53.371Z,-0.17
2022-11-19T14:35:40.065Z,0.03
2022-11-19T14:38:33.335Z,0.15
2022-11-19T14:41:25.596Z,0.24
2022-11-19T14:44:32.097Z,0.21
2022-11-19T14:47:33.798Z,0.10
2022-11-19T14:50:08.637Z,0.12
2022-11-19T14:52:52.422Z,0.16
2022-11-19T14:55:25.682Z,0.25
2022-11-19T14:58:02.718Z,0.30
2022-11-19T15:00:37.962Z,0.28
2022-11-19T15:03:15.005Z,0.31
2022-11-19T15:05:48.953Z,0.32
2022-11-19T15:08:50.407Z,0.33
2022-11-19T15:11:22.581Z,0.19
2022-11-19T15:14:38.334Z,0.17
2022-11-19T15:17:12.861Z,0.25
2022-11-19T15:19:55.567Z,0.27
2022-11-19T15:22:53.006Z,0.22
2022-11-19T15:25:37.063Z,0.23
2022-11-19T15:28:24.313Z,0.03
2022-11-19T15:31:23.507Z,0.08
2022-11-19T15:34:18.108Z,0.20
2022-11-19T15:36:53.331Z,0.31
2022-11-19T15:39:31.732Z,0.38
2022-11-19T15:42:07.604Z,0.42
2022-11-19T15:44:47.313Z,0.41
2022-11-19T15:47:23.318Z,0.40
2022-11-19T15:49:58.555Z,0.39
2022-11-19T15:52:32.118Z,0.41
2022-11-19T15:55:22.542Z,0.43
2022-11-19T15:57:56.508Z,0.45
2022-11-19T16:00:29.465Z,0.47
2022-11-19T16:03:01.935Z,0.45
2022-11-19T16:05:34.127Z,0.41
2022-11-19T16:08:12.052Z,0.34
2022-11-19T16:10:47.579Z,0.42
2022-11-19T16:13:44.744Z,0.39
2022-11-19T16:16:43.858Z,0.43
2022-11-19T16:19:18.714Z,0.40
2022-11-19T16:21:55.832Z,0.45
2022-11-19T16:24:47.938Z,0.42
2022-11-19T16:27:24.633Z,0.42
2022-11-19T16:29:56.905Z,0.45
2022-11-19T16:32:29.648Z,0.48
2022-11-19T16:35:20.466Z,0.44
2022-11-19T16:37:53.647Z,0.41
2022-11-19T16:40:26.056Z,0.42
2022-11-19T16:43:01.508Z,0.44
2022-11-19T16:45:34.658Z,0.42
2022-11-19T16:48:06.749Z,0.50
2022-11-19T16:50:45.328Z,0.52
2022-11-19T16:53:48.116Z,0.44
2022-11-19T16:56:20.186Z,0.47
2022-11-19T16:58:55.753Z,0.50
2022-11-19T17:01:29.847Z,0.42
2022-11-19T17:04:08.149Z,0.47
2022-11-19T17:06:43.581Z,0.46
2022-11-19T17:09:41.683Z,0.50
2022-11-19T17:12:39.403Z,0.55
2022-11-19T17:15:40.649Z,0.57
2022-11-19T17:18:19.135Z,0.58
2022-11-19T17:20:53.646Z,0.56
2022-11-19T17:23:27.902Z,0.58
2022-11-19T17:26:01.640Z,0.58
2022-11-19T17:28:40.844Z,0.59
2022-11-19T17:31:20.302Z,0.53
2022-11-19T17:33:54.842Z,0.60
2022-11-19T17:36:27.652Z,0.55
2022-11-19T17:38:59.875Z,0.44
2022-11-19T17:41:50.083Z,0.46
2022-11-19T17:44:39.290Z,0.24
2022-11-19T17:47:22.849Z,0.38
2022-11-19T17:49:55.567Z,0.34
2022-11-19T17:52:29.938Z,0.41
2022-11-19T17:55:15.164Z,0.42
2022-11-19T17:57:46.921Z,0.38
2022-11-19T18:00:19.372Z,0.34
2022-11-19T18:02:51.934Z,0.47
2022-11-19T18:05:26.834Z,0.41
2022-11-19T18:07:58.576Z,3.22
2022-11-19T18:10:30.256Z,1.53
2022-11-19T18:13:02.076Z,0.93
2022-11-19T18:15:33.799Z,0.69
2022-11-19T18:18:05.613Z,0.69
2022-11-19T18:20:37.581Z,0.56
2022-11-19T18:23:12.695Z,0.49
2022-11-19T18:25:44.544Z,0.50
2022-11-19T18:28:16.240Z,0.36
2022-11-19T18:30:47.911Z,0.47
2022-11-19T18:33:21.050Z,0.52
2022-11-19T18:35:52.796Z,0.42
2022-11-19T18:38:24.747Z,0.48
2022-11-19T18:40:56.488Z,0.38
2022-11-19T18:43:46.095Z,0.47
2022-11-19T18:46:17.756Z,0.28
2022-11-19T18:48:49.494Z,0.44
2022-11-19T18:51:21.943Z,0.41
2022-11-19T18:53:53.813Z,0.46
2022-11-19T18:56:25.510Z,0.49
2022-11-19T18:59:03.218Z,0.52
2022-11-19T19:01:36.731Z,0.53
2022-11-19T19:04:09.767Z,0.19
2022-11-19T19:06:42.278Z,0.28
2022-11-19T19:09:20.240Z,0.12
2022-11-19T19:12:13.407Z,0.27
2022-11-19T19:14:47.053Z,0.32
2022-11-19T19:17:19.022Z,0.41
2022-11-19T19:19:50.867Z,0.44
2022-11-19T19:22:22.889Z,0.35
2022-11-19T19:24:58.110Z,0.17
2022-11-19T19:27:30.702Z,0.32
2022-11-19T19:30:02.729Z,0.38
2022-11-19T19:32:34.421Z,0.44
2022-11-19T19:35:07.304Z,0.40
2022-11-19T19:37:39.937Z,0.42
2022-11-19T19:40:11.818Z,0.34
2022-11-19T19:42:43.692Z,0.39
2022-11-19T19:45:15.556Z,0.42
2022-11-19T19:47:47.603Z,0.48
2022-11-19T19:50:20.060Z,0.39
2022-11-19T19:52:52.178Z,0.43
2022-11-19T19:55:24.220Z,0.40
2022-11-19T19:57:56.386Z,0.34
2022-11-19T20:00:28.301Z,0.39
2022-11-19T20:03:00.091Z,0.35
2022-11-19T20:05:31.813Z,0.50
2022-11-19T20:08:03.914Z,0.51
2022-11-19T20:10:35.786Z,0.47
2022-11-19T20:13:25.293Z,0.54
2022-11-19T20:15:59.637Z,0.60
2022-11-19T20:18:32.896Z,0.55
2022-11-19T20:21:05.439Z,0.54
2022-11-19T20:23:37.891Z,0.51
2022-11-19T20:26:12.247Z,0.48
2022-11-19T20:28:44.907Z,0.49
2022-11-19T20:31:18.438Z,0.59
2022-11-19T20:33:55.339Z,0.56
2022-11-19T20:36:29.207Z,0.37
2022-11-19T20:39:01.830Z,0.19
2022-11-19T20:41:50.111Z,0.11
2022-11-19T20:44:23.102Z,0.13
2022-11-19T20:46:57.279Z,0.04
2022-11-19T20:49:31.663Z,0.23
2022-11-19T20:52:04.439Z,0.33
2022-11-19T20:54:37.201Z,0.37
2022-11-19T20:57:07.765Z,0.39
2022-11-19T20:59:39.805Z,0.31
2022-11-19T21:02:14.703Z,0.38
2022-11-19T21:04:46.739Z,0.21
2022-11-19T21:07:18.842Z,0.27
2022-11-19T21:09:50.932Z,0.32
2022-11-19T21:12:23.957Z,0.36
2022-11-19T21:14:55.921Z,0.36
2022-11-19T21:17:28.785Z,0.34
2022-11-19T21:20:00.753Z,0.36
2022-11-19T21:22:32.584Z,0.23
2022-11-19T21:25:09.694Z,0.23
2022-11-19T21:27:44.185Z,0.24
2022-11-19T21:30:19.204Z,0.34
2022-11-19T21:32:50.994Z,0.19
2022-11-19T21:35:22.716Z,0.14
2022-11-19T21:37:54.750Z,0.14
2022-11-19T21:40:26.590Z,0.14
2022-11-19T21:42:58.365Z,0.12
2022-11-19T21:45:30.098Z,0.15
2022-11-19T21:48:01.904Z,0.06
2022-11-19T21:50:33.975Z,-0.02
2022-11-19T21:53:05.978Z,0.15
2022-11-19T21:55:39.382Z,0.20
2022-11-19T21:58:13.131Z,0.18
2022-11-19T22:00:47.084Z,0.07
2022-11-19T22:03:18.924Z,0.09
2022-11-19T22:05:58.659Z,0.01
2022-11-19T22:08:32.843Z,0.05
2022-11-19T22:11:25.312Z,0.06
2022-11-19T22:13:58.869Z,0.21
2022-11-19T22:16:31.928Z,0.22
2022-11-19T22:19:03.904Z,0.22
2022-11-19T22:21:36.291Z,0.23
2022-11-19T22:24:09.065Z,0.08
2022-11-19T22:26:39.253Z,0.26
2022-11-19T22:29:11.115Z,0.07
2022-11-19T22:31:42.907Z,0.12
2022-11-19T22:34:15.285Z,0.21
2022-11-19T22:36:47.035Z,0.29
2022-11-19T22:39:19.468Z,0.33
2022-11-19T22:41:51.699Z,0.33
2022-11-19T22:44:23.856Z,0.07
2022-11-19T22:46:58.558Z,0.14
2022-11-19T22:49:30.886Z,0.16
2022-11-19T22:52:02.589Z,0.30
2022-11-19T22:54:37.362Z,0.40
2022-11-19T22:57:13.649Z,0.41
2022-11-19T22:59:45.355Z,0.46
2022-11-19T23:02:19.530Z,0.49
2022-11-19T23:04:51.583Z,0.52
2022-11-19T23:07:23.362Z,0.38
2022-11-19T23:09:55.083Z,0.46
2022-11-19T23:12:44.499Z,0.52
2022-11-19T23:15:16.135Z,0.61
2022-11-19T23:17:48.355Z,0.63
2022-11-19T23:20:20.284Z,0.55
2022-11-19T23:22:51.968Z,0.57
2022-11-19T23:25:24.011Z,0.54
2022-11-19T23:27:55.862Z,0.54
2022-11-19T23:30:27.598Z,0.66
2022-11-19T23:32:59.302Z,0.67
2022-11-19T23:35:31.136Z,0.71
2022-11-19T23:38:02.892Z,0.61
2022-11-19T23:40:34.720Z,0.71
2022-11-19T23:43:07.381Z,0.74
2022-11-19T23:45:39.069Z,0.70
2022-11-19T23:48:11.035Z,0.60
2022-11-19T23:50:42.748Z,0.72
2022-11-19T23:53:14.502Z,0.75
2022-11-19T23:55:49.467Z,0.79
2022-11-19T23:58:21.319Z,0.74
